Terminal Aerodrome Forecast
Issued by NWS

Current Version | Previous Version | Text Only | Print | Product List | Glossary Off
Versions: 1 2 3 4 5 6 7 8 9 10 11 12 13

000
FTUS41 KPBZ 171720
TAFHLG
TAF
KHLG 171720Z 1718/1818 26005KT P6SM BKN020
      TEMPO 1718/1720 4SM -SN
     FM180100 24007KT P6SM BKN035
     FM180500 23007KT P6SM SCT060
     FM181500 23012G20KT P6SM SCT120=

USA.gov is the U.S. government's official web portal to all federal, state and local government web resources and services.